createdAt,value
2023-03-03T00:01:36.147Z,96978.13
2023-03-03T00:04:02.839Z,96976.97
2023-03-03T00:06:30.601Z,96979.25
2023-03-03T00:08:58.079Z,96977.81
2023-03-03T00:11:24.518Z,96975.13
2023-03-03T00:13:54.809Z,96966.31
2023-03-03T00:16:37.356Z,96975.22
2023-03-03T00:19:12.967Z,96971.00
2023-03-03T00:21:46.619Z,96967.19
2023-03-03T00:24:24.795Z,96977.53
2023-03-03T00:26:55.706Z,96981.06
2023-03-03T00:29:30.903Z,96980.69
2023-03-03T00:32:23.184Z,96982.44
2023-03-03T00:34:54.388Z,96986.91
2023-03-03T00:37:24.005Z,96979.16
2023-03-03T00:39:50.468Z,96982.59
2023-03-03T00:42:18.509Z,96995.31
2023-03-03T00:44:56.203Z,96987.41
2023-03-03T00:47:38.303Z,96991.53
2023-03-03T00:50:07.764Z,97002.03
2023-03-03T00:52:41.136Z,96996.84
2023-03-03T00:55:08.701Z,96991.09
2023-03-03T00:57:35.349Z,96988.56
2023-03-03T01:00:01.920Z,96990.47
2023-03-03T01:02:28.420Z,96984.91
2023-03-03T01:04:57.654Z,96993.53
2023-03-03T01:07:24.446Z,96991.59
2023-03-03T01:09:51.063Z,96991.88
2023-03-03T01:12:18.101Z,96983.31
2023-03-03T01:14:46.092Z,96976.13
2023-03-03T01:17:12.865Z,96982.34
2023-03-03T01:19:39.330Z,96985.25
2023-03-03T01:22:05.824Z,96974.91
2023-03-03T01:24:32.239Z,96981.94
2023-03-03T01:26:58.711Z,96979.75
2023-03-03T01:29:25.235Z,96976.47
2023-03-03T01:31:51.757Z,96975.22
2023-03-03T01:34:18.198Z,96974.69
2023-03-03T01:36:44.936Z,96977.81
2023-03-03T01:39:12.310Z,96976.03
2023-03-03T01:41:39.819Z,96976.91
2023-03-03T01:44:06.437Z,96973.38
2023-03-03T01:46:42.361Z,96972.25
2023-03-03T01:49:17.673Z,96968.22
2023-03-03T01:52:12.997Z,96972.88
2023-03-03T01:54:50.547Z,96979.00
2023-03-03T01:57:25.321Z,96978.22
2023-03-03T01:59:55.336Z,96973.91
2023-03-03T02:02:22.526Z,96976.09
2023-03-03T02:04:50.319Z,96981.06
2023-03-03T02:07:18.900Z,96968.97
2023-03-03T02:10:05.406Z,96974.66
2023-03-03T02:12:39.285Z,96964.63
2023-03-03T02:15:33.330Z,96964.28
2023-03-03T02:18:04.264Z,96957.13
2023-03-03T02:20:30.644Z,96962.50
2023-03-03T02:23:06.285Z,96962.81
2023-03-03T02:26:02.812Z,96959.03
2023-03-03T02:28:32.648Z,96957.78
2023-03-03T02:31:01.110Z,96958.81
2023-03-03T02:33:32.206Z,96956.56
2023-03-03T02:35:58.677Z,96962.97
2023-03-03T02:38:32.393Z,96960.09
2023-03-03T02:40:58.990Z,96964.81
2023-03-03T02:44:05.896Z,96959.44
2023-03-03T02:46:43.806Z,96956.34
2023-03-03T02:49:13.146Z,96957.94
2023-03-03T02:51:40.437Z,96960.31
2023-03-03T02:54:08.579Z,96961.16
2023-03-03T02:56:35.567Z,96969.63
2023-03-03T02:59:02.329Z,96965.06
2023-03-03T03:01:31.768Z,96966.94
2023-03-03T03:03:58.985Z,96973.44
2023-03-03T03:06:25.647Z,96973.75
2023-03-03T03:08:55.486Z,96980.16
2023-03-03T03:11:21.953Z,96978.50
2023-03-03T03:13:48.397Z,96976.09
2023-03-03T03:16:14.835Z,96965.25
2023-03-03T03:18:41.394Z,96982.63
2023-03-03T03:21:14.034Z,96985.41
2023-03-03T03:23:41.069Z,96978.69
2023-03-03T03:26:08.341Z,96982.84
2023-03-03T03:28:35.611Z,96974.38
2023-03-03T03:31:02.663Z,96980.28
2023-03-03T03:33:29.329Z,96980.97
2023-03-03T03:35:57.219Z,96993.19
2023-03-03T03:38:25.818Z,96997.94
2023-03-03T03:40:54.721Z,96994.00
2023-03-03T03:43:22.925Z,96991.72
2023-03-03T03:45:49.565Z,96989.16
2023-03-03T03:48:17.624Z,96977.06
2023-03-03T03:50:44.139Z,96977.03
2023-03-03T03:53:10.685Z,96982.84
2023-03-03T03:55:37.224Z,96983.13
2023-03-03T03:58:03.751Z,96974.78
2023-03-03T04:00:30.435Z,96979.31
2023-03-03T04:02:57.050Z,96988.72
2023-03-03T04:05:23.662Z,96989.16
2023-03-03T04:07:50.536Z,96987.78
2023-03-03T04:10:18.217Z,96992.97
2023-03-03T04:12:44.743Z,96990.91
2023-03-03T04:15:13.117Z,96987.19
2023-03-03T04:17:40.122Z,96988.69
2023-03-03T04:20:07.597Z,96994.09
2023-03-03T04:22:35.989Z,96996.75
2023-03-03T04:25:05.380Z,96995.47
2023-03-03T04:27:33.530Z,97000.09
2023-03-03T04:30:01.483Z,96995.66
2023-03-03T04:32:28.108Z,97005.28
2023-03-03T04:35:05.785Z,97004.78
2023-03-03T04:37:34.174Z,97006.94
2023-03-03T04:40:00.706Z,97004.97
2023-03-03T04:42:29.247Z,97004.16
2023-03-03T04:44:55.782Z,97001.66
2023-03-03T04:47:22.411Z,96997.19
2023-03-03T04:49:48.892Z,96997.59
2023-03-03T04:52:15.405Z,96999.16
2023-03-03T04:54:42.346Z,97000.84
2023-03-03T04:57:09.820Z,97002.75
2023-03-03T04:59:36.928Z,97005.69
2023-03-03T05:02:05.347Z,97010.41
2023-03-03T05:04:32.349Z,97012.88
2023-03-03T05:06:58.960Z,97006.78
2023-03-03T05:09:25.460Z,97001.78
2023-03-03T05:11:52.189Z,97004.41
2023-03-03T05:14:18.641Z,97009.28
2023-03-03T05:16:45.161Z,97008.97
2023-03-03T05:19:11.742Z,97015.56
2023-03-03T05:21:42.400Z,97017.22
2023-03-03T05:24:09.890Z,97012.31
2023-03-03T05:26:36.448Z,97015.06
2023-03-03T05:29:04.466Z,97017.00
2023-03-03T05:31:31.089Z,97012.38
2023-03-03T05:33:57.686Z,97020.50
2023-03-03T05:36:24.879Z,97018.94
2023-03-03T05:38:53.661Z,97027.72
2023-03-03T05:41:20.665Z,97026.34
2023-03-03T05:43:53.250Z,97028.53
2023-03-03T05:46:19.832Z,97035.44
2023-03-03T05:48:47.301Z,97042.25
2023-03-03T05:51:14.060Z,97035.63
2023-03-03T05:53:40.860Z,97021.81
2023-03-03T05:56:07.443Z,97044.28
2023-03-03T05:58:34.936Z,97036.03
2023-03-03T06:01:01.454Z,97037.53
2023-03-03T06:03:28.001Z,97047.34
2023-03-03T06:05:54.677Z,97046.59
2023-03-03T06:08:22.161Z,97053.13
2023-03-03T06:10:48.612Z,97054.78
2023-03-03T06:13:15.224Z,97046.56
2023-03-03T06:15:41.702Z,97044.13
2023-03-03T06:18:09.054Z,97050.63
2023-03-03T06:20:45.832Z,97057.78
2023-03-03T06:23:12.235Z,97064.06
2023-03-03T06:25:39.612Z,97067.13
2023-03-03T06:28:06.054Z,97060.91
2023-03-03T06:30:32.580Z,97072.03
2023-03-03T06:32:59.102Z,97065.09
2023-03-03T06:35:25.711Z,97071.81
2023-03-03T06:37:52.275Z,97076.19
2023-03-03T06:40:18.905Z,97074.22
2023-03-03T06:42:45.668Z,97075.56
2023-03-03T06:45:12.612Z,97074.81
2023-03-03T06:47:39.072Z,97079.19
2023-03-03T06:50:06.367Z,97082.06
2023-03-03T06:52:32.814Z,97086.41
2023-03-03T06:55:02.112Z,97086.44
2023-03-03T06:57:31.174Z,97093.06
2023-03-03T07:00:16.504Z,97085.66
2023-03-03T07:02:43.261Z,97088.44
2023-03-03T07:05:15.479Z,97089.38
2023-03-03T07:07:43.607Z,97084.56
2023-03-03T07:10:29.210Z,97095.81
2023-03-03T07:13:06.928Z,97076.81
2023-03-03T07:15:35.442Z,97077.00
2023-03-03T07:18:03.292Z,97075.34
2023-03-03T07:20:38.330Z,97075.94
2023-03-03T07:23:23.258Z,97075.72
2023-03-03T07:25:51.001Z,97087.53
2023-03-03T07:28:24.581Z,97101.81
2023-03-03T07:30:53.248Z,97093.03
2023-03-03T07:33:45.321Z,97097.19
2023-03-03T07:36:37.746Z,97099.09
2023-03-03T07:39:42.086Z,97106.78
2023-03-03T07:42:34.789Z,97110.88
2023-03-03T07:45:02.399Z,97108.88
2023-03-03T07:47:35.407Z,97133.59
2023-03-03T07:50:16.536Z,97132.75
2023-03-03T07:53:00.703Z,97139.09
2023-03-03T07:55:31.533Z,97147.28
2023-03-03T07:58:16.550Z,97137.50
2023-03-03T08:00:42.983Z,97151.00
2023-03-03T08:03:20.902Z,97149.06
2023-03-03T08:05:49.278Z,97155.22
2023-03-03T08:08:36.848Z,97146.97
2023-03-03T08:11:05.472Z,97138.72
2023-03-03T08:13:34.941Z,97148.44
2023-03-03T08:16:04.793Z,97153.78
2023-03-03T08:18:48.481Z,97148.84
2023-03-03T08:21:18.034Z,97151.66
2023-03-03T08:23:45.905Z,97141.34
2023-03-03T08:26:17.030Z,97141.13
2023-03-03T08:28:45.374Z,97143.06
2023-03-03T08:31:22.360Z,97147.13
2023-03-03T08:33:54.345Z,97138.78
2023-03-03T08:36:21.440Z,97133.41
2023-03-03T08:38:48.039Z,97145.16
2023-03-03T08:41:15.705Z,97136.22
2023-03-03T08:43:48.329Z,97131.59
2023-03-03T08:46:14.897Z,97117.28
2023-03-03T08:48:47.670Z,97116.22
2023-03-03T08:51:14.745Z,97118.69
2023-03-03T08:53:48.714Z,97111.88
2023-03-03T08:56:15.191Z,97119.34
2023-03-03T08:59:01.342Z,97118.50
2023-03-03T09:01:28.602Z,97111.13
2023-03-03T09:03:55.243Z,97113.22
2023-03-03T09:06:21.766Z,97114.72
2023-03-03T09:08:48.643Z,97111.34
2023-03-03T09:11:24.774Z,97106.53
2023-03-03T09:14:06.334Z,97111.81
2023-03-03T09:16:37.986Z,97112.47
2023-03-03T09:19:43.640Z,97108.19
2023-03-03T09:22:23.023Z,97110.72
2023-03-03T09:24:53.878Z,97124.91
2023-03-03T09:27:34.304Z,97111.53
2023-03-03T09:30:26.949Z,97124.91
2023-03-03T09:32:56.218Z,97125.84
2023-03-03T09:35:41.215Z,97120.81
2023-03-03T09:38:28.172Z,97123.78
2023-03-03T09:41:09.731Z,97127.13
2023-03-03T09:43:59.740Z,97128.06
2023-03-03T09:46:36.670Z,97119.88
2023-03-03T09:49:09.096Z,97126.97
2023-03-03T09:51:50.165Z,97126.66
2023-03-03T09:54:31.065Z,97121.53
2023-03-03T09:57:12.098Z,97115.03
2023-03-03T09:59:55.073Z,97116.16
2023-03-03T10:02:33.521Z,97107.78
2023-03-03T10:05:14.429Z,97113.38
2023-03-03T10:08:31.224Z,97115.69
2023-03-03T10:11:13.297Z,97117.50
2023-03-03T10:13:53.963Z,97113.88
2023-03-03T10:16:29.440Z,97108.03
2023-03-03T10:19:11.681Z,97116.56
2023-03-03T10:22:17.450Z,97112.03
2023-03-03T10:25:05.146Z,97123.41
2023-03-03T10:27:50.048Z,97134.59
2023-03-03T10:30:46.211Z,97133.31
2023-03-03T10:33:32.820Z,97133.88
2023-03-03T10:36:25.407Z,97134.28
2023-03-03T10:39:16.260Z,97130.94
2023-03-03T10:41:47.002Z,97127.13
2023-03-03T10:44:41.087Z,97133.59
2023-03-03T10:47:26.660Z,97139.94
2023-03-03T10:50:22.835Z,97136.47
2023-03-03T10:52:54.296Z,97131.34
2023-03-03T10:55:38.320Z,97132.81
2023-03-03T10:58:28.824Z,97131.44
2023-03-03T11:01:22.335Z,97127.97
2023-03-03T11:04:13.217Z,97136.66
2023-03-03T11:06:50.896Z,97131.03
2023-03-03T11:09:42.730Z,97125.56
2023-03-03T11:12:29.499Z,97131.56
2023-03-03T11:15:22.343Z,97125.47
2023-03-03T11:18:10.241Z,97127.28
2023-03-03T11:20:41.634Z,97132.84
2023-03-03T11:23:38.004Z,97126.56
2023-03-03T11:26:46.067Z,97114.81
2023-03-03T11:29:26.314Z,97123.44
2023-03-03T11:31:56.982Z,97114.47
2023-03-03T11:35:19.130Z,97110.88
2023-03-03T11:37:57.681Z,97108.25
2023-03-03T11:40:48.858Z,97103.56
2023-03-03T11:43:46.040Z,97100.41
2023-03-03T11:46:22.513Z,97098.44
2023-03-03T11:49:17.281Z,97095.38
2023-03-03T11:51:43.774Z,97091.78
2023-03-03T11:54:22.748Z,97089.53
2023-03-03T11:56:50.211Z,97085.84
2023-03-03T11:59:44.336Z,97083.53
2023-03-03T12:02:29.297Z,97074.16
2023-03-03T12:05:11.713Z,97077.47
2023-03-03T12:07:57.807Z,97063.50
2023-03-03T12:10:50.923Z,97064.50
2023-03-03T12:13:45.295Z,97073.19
2023-03-03T12:16:49.197Z,97060.78
2023-03-03T12:19:41.033Z,97055.81
2023-03-03T12:22:21.703Z,97060.72
2023-03-03T12:25:25.935Z,97057.03
2023-03-03T12:27:55.647Z,97055.13
2023-03-03T12:30:41.128Z,97051.78
2023-03-03T12:33:29.733Z,97045.91
2023-03-03T12:36:33.520Z,97041.84
2023-03-03T12:39:34.732Z,97044.66
2023-03-03T12:42:17.261Z,97034.09
2023-03-03T12:45:18.845Z,97031.25
2023-03-03T12:47:51.731Z,97035.53
2023-03-03T12:50:41.548Z,97032.19
2023-03-03T12:53:27.604Z,97040.59
2023-03-03T12:56:01.484Z,97033.75
2023-03-03T12:58:33.982Z,97030.97
2023-03-03T13:01:09.554Z,97030.75
2023-03-03T13:03:56.204Z,97036.16
2023-03-03T13:06:32.973Z,97026.41
2023-03-03T13:09:18.311Z,97021.81
2023-03-03T13:12:03.450Z,97033.50
2023-03-03T13:14:41.684Z,97033.03
2023-03-03T13:17:37.074Z,97028.88
2023-03-03T13:20:16.510Z,97023.75
2023-03-03T13:23:17.715Z,97014.84
2023-03-03T13:26:04.994Z,97028.13
2023-03-03T13:28:36.971Z,97022.06
2023-03-03T13:31:12.584Z,97011.19
2023-03-03T13:33:50.108Z,97017.59
2023-03-03T13:36:17.589Z,97024.72
2023-03-03T13:38:57.667Z,97015.34
2023-03-03T13:41:34.914Z,97018.91
2023-03-03T13:44:11.870Z,97012.88
2023-03-03T13:46:45.476Z,97003.63
2023-03-03T13:49:26.414Z,97017.53
2023-03-03T13:52:03.360Z,97018.25
2023-03-03T13:54:39.786Z,97019.84
2023-03-03T13:57:27.604Z,97008.31
2023-03-03T14:00:30.904Z,97009.59
2023-03-03T14:03:18.235Z,97005.97
2023-03-03T14:05:48.583Z,97005.88
2023-03-03T14:08:39.755Z,97000.59
2023-03-03T14:11:23.900Z,96993.91
2023-03-03T14:14:20.759Z,96994.50
2023-03-03T14:17:21.842Z,96988.28
2023-03-03T14:20:13.296Z,96988.28
2023-03-03T14:22:59.332Z,96988.09
2023-03-03T14:25:27.162Z,96983.28
2023-03-03T14:28:09.730Z,96989.97
2023-03-03T14:30:42.396Z,96986.56
2023-03-03T14:33:09.410Z,96980.47
2023-03-03T14:35:50.386Z,96977.75
2023-03-03T14:38:21.983Z,96975.78
2023-03-03T14:41:23.106Z,96979.66
2023-03-03T14:43:58.793Z,96973.16
2023-03-03T14:46:33.645Z,96973.97
2023-03-03T14:49:04.325Z,96975.63
2023-03-03T14:51:48.796Z,96968.41
2023-03-03T14:54:26.857Z,96976.38
2023-03-03T14:57:16.562Z,96965.28
2023-03-03T15:00:10.718Z,96970.78
2023-03-03T15:02:52.593Z,96970.59
2023-03-03T15:05:19.140Z,96961.44
2023-03-03T15:07:50.152Z,96971.94
2023-03-03T15:10:27.949Z,96969.66
2023-03-03T15:12:54.752Z,96961.78
2023-03-03T15:15:24.761Z,96968.06
2023-03-03T15:18:07.257Z,96971.31
2023-03-03T15:20:48.292Z,96962.69
2023-03-03T15:23:29.712Z,96972.72
2023-03-03T15:26:41.460Z,96968.97
2023-03-03T15:29:23.212Z,96971.47
2023-03-03T15:32:18.970Z,96976.84
2023-03-03T15:35:21.802Z,96977.53
2023-03-03T15:38:07.411Z,96978.50
2023-03-03T15:40:46.011Z,96983.44
2023-03-03T15:43:45.200Z,96975.09
2023-03-03T15:46:52.412Z,96983.81
2023-03-03T15:49:52.953Z,96978.41
2023-03-03T15:52:23.576Z,96977.59
2023-03-03T15:55:06.882Z,96982.16
2023-03-03T15:57:42.455Z,96980.72
2023-03-03T16:00:32.785Z,96979.25
2023-03-03T16:03:06.499Z,96981.06
2023-03-03T16:05:46.627Z,96977.47
2023-03-03T16:08:26.000Z,96984.16
2023-03-03T16:11:04.530Z,96980.53
2023-03-03T16:13:41.451Z,96988.41
2023-03-03T16:16:31.096Z,96989.25
2023-03-03T16:19:04.061Z,96988.72
2023-03-03T16:21:42.717Z,96991.66
2023-03-03T16:24:24.243Z,97006.56
2023-03-03T16:27:09.353Z,97009.28
2023-03-03T16:29:42.555Z,97010.56
2023-03-03T16:32:26.397Z,97010.19
2023-03-03T16:35:15.904Z,97022.28
2023-03-03T16:38:03.594Z,97025.34
2023-03-03T16:40:40.090Z,97028.72
2023-03-03T16:43:16.769Z,97032.94
2023-03-03T16:45:43.408Z,97040.69
2023-03-03T16:48:47.569Z,97044.22
2023-03-03T16:51:56.228Z,97044.72
2023-03-03T16:54:44.261Z,97049.59
2023-03-03T16:57:20.910Z,97058.63
2023-03-03T17:00:11.062Z,97064.56
2023-03-03T17:02:59.902Z,97073.34
2023-03-03T17:05:42.449Z,97072.22
2023-03-03T17:08:37.893Z,97078.63
2023-03-03T17:11:23.363Z,97071.44
2023-03-03T17:14:10.951Z,97075.75
2023-03-03T17:16:56.657Z,97081.41
2023-03-03T17:20:02.732Z,97092.84
2023-03-03T17:22:47.843Z,97092.22
2023-03-03T17:25:48.219Z,97095.50
2023-03-03T17:28:31.736Z,97101.03
2023-03-03T17:31:24.224Z,97102.28
2023-03-03T17:34:09.640Z,97116.63
2023-03-03T17:36:49.774Z,97110.03
2023-03-03T17:39:30.727Z,97118.97
2023-03-03T17:42:19.172Z,97114.16
2023-03-03T17:45:00.697Z,97118.84
2023-03-03T17:47:50.181Z,97122.31
2023-03-03T17:50:31.875Z,97126.84
2023-03-03T17:53:17.605Z,97121.06
2023-03-03T17:56:12.053Z,97134.38
2023-03-03T17:58:53.575Z,97140.84
2023-03-03T18:01:25.983Z,97138.34
2023-03-03T18:04:27.712Z,97139.97
2023-03-03T18:07:22.070Z,97150.91
2023-03-03T18:10:24.504Z,97153.25
2023-03-03T18:13:30.752Z,97156.50
2023-03-03T18:16:11.679Z,97157.53
2023-03-03T18:19:02.766Z,97162.88
2023-03-03T18:21:35.374Z,97154.66
2023-03-03T18:24:29.053Z,97153.84
2023-03-03T18:26:56.636Z,97168.34
2023-03-03T18:29:30.578Z,97157.91
2023-03-03T18:32:04.285Z,97166.41
2023-03-03T18:34:36.306Z,97169.00
2023-03-03T18:37:09.528Z,97163.72
2023-03-03T18:39:41.153Z,97169.94
2023-03-03T18:42:35.169Z,97168.16
2023-03-03T18:45:27.163Z,97170.63
2023-03-03T18:48:05.401Z,97170.75
2023-03-03T18:50:47.148Z,97164.84
2023-03-03T18:53:18.095Z,97159.44
2023-03-03T18:55:45.978Z,97166.94
2023-03-03T18:58:15.483Z,97163.84
2023-03-03T19:00:44.544Z,97160.53
2023-03-03T19:03:50.742Z,97160.47
2023-03-03T19:06:52.405Z,97162.84
2023-03-03T19:09:39.832Z,97167.28
2023-03-03T19:12:11.096Z,97166.97
2023-03-03T19:14:40.725Z,97167.31
2023-03-03T19:17:16.378Z,97173.22
2023-03-03T19:20:08.863Z,97164.38
2023-03-03T19:23:03.080Z,97175.00
2023-03-03T19:25:33.996Z,97175.28
2023-03-03T19:28:30.432Z,97179.66
2023-03-03T19:31:06.261Z,97180.00
2023-03-03T19:34:00.701Z,97180.00
2023-03-03T19:36:30.258Z,97190.38
2023-03-03T19:39:13.288Z,97184.25
2023-03-03T19:41:52.664Z,97190.63
2023-03-03T19:44:51.304Z,97189.47
2023-03-03T19:47:29.255Z,97192.63
2023-03-03T19:50:07.004Z,97189.34
2023-03-03T19:53:07.493Z,97196.47
2023-03-03T19:56:11.472Z,97213.47
2023-03-03T19:59:03.035Z,97199.69
2023-03-03T20:01:45.581Z,97208.38
2023-03-03T20:04:29.124Z,97205.69
2023-03-03T20:07:18.526Z,97204.25
2023-03-03T20:10:16.113Z,97210.72
2023-03-03T20:13:00.085Z,97216.50
2023-03-03T20:15:40.445Z,97213.03
2023-03-03T20:18:26.414Z,97228.97
2023-03-03T20:21:00.837Z,97225.69
2023-03-03T20:23:46.924Z,97229.16
2023-03-03T20:26:28.803Z,97231.25
2023-03-03T20:29:35.322Z,97234.94
2023-03-03T20:32:28.102Z,97233.09
2023-03-03T20:35:00.631Z,97235.13
2023-03-03T20:38:05.750Z,97251.69
2023-03-03T20:40:50.856Z,97243.97
2023-03-03T20:43:39.574Z,97249.81
2023-03-03T20:46:36.157Z,97245.81
2023-03-03T20:49:38.179Z,97248.59
2023-03-03T20:52:31.597Z,97253.69
2023-03-03T20:55:18.320Z,97259.28
2023-03-03T20:58:05.272Z,97257.91
2023-03-03T21:00:35.662Z,97252.75
2023-03-03T21:03:30.167Z,97259.31
2023-03-03T21:06:15.440Z,97257.84
2023-03-03T21:08:46.846Z,97266.97
2023-03-03T21:11:18.623Z,97255.91
2023-03-03T21:13:54.373Z,97258.81
2023-03-03T21:16:20.978Z,97256.53
2023-03-03T21:18:57.495Z,97257.34
2023-03-03T21:21:30.145Z,97254.13
2023-03-03T21:23:57.175Z,97252.78
2023-03-03T21:26:59.016Z,97246.78
2023-03-03T21:29:35.941Z,97239.75
2023-03-03T21:32:05.386Z,97244.50
2023-03-03T21:34:33.852Z,97245.53
2023-03-03T21:37:02.187Z,97248.56
2023-03-03T21:39:46.845Z,97237.88
2023-03-03T21:42:19.545Z,97237.47
2023-03-03T21:44:52.453Z,97231.44
2023-03-03T21:47:21.547Z,97246.75
2023-03-03T21:49:50.708Z,97238.97
2023-03-03T21:52:32.844Z,97239.88
2023-03-03T21:54:59.172Z,97237.09
2023-03-03T21:57:25.897Z,97233.91
2023-03-03T21:59:54.372Z,97230.78
2023-03-03T22:02:20.871Z,97232.66
2023-03-03T22:04:47.472Z,97233.25
2023-03-03T22:07:14.064Z,97237.78
2023-03-03T22:09:40.612Z,97225.13
2023-03-03T22:12:07.462Z,97229.66
2023-03-03T22:14:34.382Z,97228.22
2023-03-03T22:17:06.696Z,97230.50
2023-03-03T22:19:34.248Z,97225.03
2023-03-03T22:22:00.844Z,97228.81
2023-03-03T22:24:29.527Z,97227.97
2023-03-03T22:26:56.282Z,97227.66
2023-03-03T22:29:23.258Z,97225.41
2023-03-03T22:31:51.237Z,97226.03
2023-03-03T22:34:17.982Z,97232.53
2023-03-03T22:36:44.501Z,97222.63
2023-03-03T22:39:11.033Z,97224.56
2023-03-03T22:41:38.331Z,97224.78
2023-03-03T22:44:05.030Z,97227.84
2023-03-03T22:46:33.609Z,97224.19
2023-03-03T22:49:00.106Z,97219.97
2023-03-03T22:51:26.556Z,97224.31
2023-03-03T22:53:53.100Z,97215.50
2023-03-03T22:56:19.653Z,97218.63
2023-03-03T22:58:46.249Z,97223.47
2023-03-03T23:01:12.810Z,97220.28
2023-03-03T23:03:39.455Z,97222.16
2023-03-03T23:06:06.399Z,97220.53
2023-03-03T23:08:33.026Z,97210.22
2023-03-03T23:10:59.638Z,97211.31
2023-03-03T23:13:27.371Z,97212.78
2023-03-03T23:15:53.954Z,97223.72
2023-03-03T23:18:20.509Z,97219.28
2023-03-03T23:20:46.984Z,97215.13
2023-03-03T23:23:13.477Z,97216.91
2023-03-03T23:25:39.966Z,97215.88
2023-03-03T23:28:06.878Z,97215.50
2023-03-03T23:30:34.793Z,97215.41
2023-03-03T23:33:01.487Z,97225.56
2023-03-03T23:35:28.084Z,97219.84
2023-03-03T23:37:54.547Z,97218.81
2023-03-03T23:40:21.207Z,97223.72
2023-03-03T23:42:47.875Z,97219.63
2023-03-03T23:45:14.760Z,97226.47
2023-03-03T23:47:41.618Z,97228.16
2023-03-03T23:50:10.089Z,97222.69
2023-03-03T23:52:37.942Z,97226.75
2023-03-03T23:55:05.201Z,97228.72
2023-03-03T23:57:31.956Z,97227.88
2023-03-03T23:59:58.982Z,97228.81
